sensor_id;sensor_type;location;lat;lon;timestamp;P1;durP1;ratioP1;P2;durP2;ratioP2
43626;SDS011;29217;52.586;13.442;2023-07-29T00:00:52;9.13;;;4.68;;
43626;SDS011;29217;52.586;13.442;2023-07-29T00:03:17;5.88;;;4.00;;
43626;SDS011;29217;52.586;13.442;2023-07-29T00:05:43;6.38;;;4.45;;
43626;SDS011;29217;52.586;13.442;2023-07-29T00:08:09;9.18;;;4.38;;
43626;SDS011;29217;52.586;13.442;2023-07-29T00:10:37;11.57;;;4.95;;
43626;SDS011;29217;52.586;13.442;2023-07-29T00:13:04;10.82;;;4.70;;
43626;SDS011;29217;52.586;13.442;2023-07-29T00:15:30;6.07;;;4.60;;
43626;SDS011;29217;52.586;13.442;2023-07-29T00:17:55;8.70;;;4.07;;
43626;SDS011;29217;52.586;13.442;2023-07-29T00:20:21;5.95;;;4.30;;
43626;SDS011;29217;52.586;13.442;2023-07-29T00:22:46;6.18;;;4.32;;
43626;SDS011;29217;52.586;13.442;2023-07-29T00:25:14;13.65;;;4.60;;
43626;SDS011;29217;52.586;13.442;2023-07-29T00:27:41;13.40;;;4.55;;
43626;SDS011;29217;52.586;13.442;2023-07-29T00:30:07;7.80;;;4.00;;
43626;SDS011;29217;52.586;13.442;2023-07-29T00:32:34;11.05;;;4.25;;
43626;SDS011;29217;52.586;13.442;2023-07-29T00:35:01;11.30;;;3.90;;
43626;SDS011;29217;52.586;13.442;2023-07-29T00:37:27;19.88;;;4.45;;
43626;SDS011;29217;52.586;13.442;2023-07-29T00:39:53;11.20;;;3.88;;
43626;SDS011;29217;52.586;13.442;2023-07-29T00:42:19;8.18;;;4.40;;
43626;SDS011;29217;52.586;13.442;2023-07-29T00:44:45;8.45;;;4.30;;
43626;SDS011;29217;52.586;13.442;2023-07-29T00:47:10;7.20;;;4.40;;
43626;SDS011;29217;52.586;13.442;2023-07-29T00:49:37;9.05;;;4.63;;
43626;SDS011;29217;52.586;13.442;2023-07-29T00:52:03;13.98;;;4.68;;
43626;SDS011;29217;52.586;13.442;2023-07-29T00:54:29;8.38;;;4.57;;
43626;SDS011;29217;52.586;13.442;2023-07-29T00:56:55;14.52;;;4.78;;
43626;SDS011;29217;52.586;13.442;2023-07-29T00:59:20;7.80;;;4.63;;
43626;SDS011;29217;52.586;13.442;2023-07-29T01:01:47;9.07;;;4.53;;
43626;SDS011;29217;52.586;13.442;2023-07-29T01:04:13;5.10;;;3.50;;
43626;SDS011;29217;52.586;13.442;2023-07-29T01:09:15;10.60;;;4.00;;
43626;SDS011;29217;52.586;13.442;2023-07-29T01:17:26;8.05;;;4.47;;
43626;SDS011;29217;52.586;13.442;2023-07-29T01:20:03;16.05;;;3.55;;
43626;SDS011;29217;52.586;13.442;2023-07-29T01:22:33;7.90;;;4.50;;
43626;SDS011;29217;52.586;13.442;2023-07-29T01:25:00;6.80;;;4.38;;
43626;SDS011;29217;52.586;13.442;2023-07-29T01:27:26;12.32;;;4.25;;
43626;SDS011;29217;52.586;13.442;2023-07-29T01:29:52;8.57;;;4.18;;
43626;SDS011;29217;52.586;13.442;2023-07-29T01:32:20;15.90;;;4.47;;
43626;SDS011;29217;52.586;13.442;2023-07-29T01:35:00;10.45;;;4.55;;
43626;SDS011;29217;52.586;13.442;2023-07-29T01:37:33;11.25;;;4.93;;
43626;SDS011;29217;52.586;13.442;2023-07-29T01:40:02;13.82;;;4.95;;
43626;SDS011;29217;52.586;13.442;2023-07-29T01:42:28;8.60;;;4.22;;
43626;SDS011;29217;52.586;13.442;2023-07-29T01:44:56;5.88;;;4.13;;
43626;SDS011;29217;52.586;13.442;2023-07-29T01:47:22;7.65;;;4.43;;
43626;SDS011;29217;52.586;13.442;2023-07-29T01:49:47;8.82;;;4.28;;
43626;SDS011;29217;52.586;13.442;2023-07-29T01:52:13;5.85;;;4.43;;
43626;SDS011;29217;52.586;13.442;2023-07-29T01:54:39;10.20;;;3.88;;
43626;SDS011;29217;52.586;13.442;2023-07-29T01:57:04;12.50;;;4.60;;
43626;SDS011;29217;52.586;13.442;2023-07-29T01:59:30;7.07;;;4.22;;
43626;SDS011;29217;52.586;13.442;2023-07-29T02:01:56;9.98;;;4.45;;
43626;SDS011;29217;52.586;13.442;2023-07-29T02:04:21;11.32;;;4.43;;
43626;SDS011;29217;52.586;13.442;2023-07-29T02:06:47;10.63;;;4.50;;
43626;SDS011;29217;52.586;13.442;2023-07-29T02:09:12;7.50;;;4.20;;
43626;SDS011;29217;52.586;13.442;2023-07-29T02:11:38;10.90;;;5.45;;
43626;SDS011;29217;52.586;13.442;2023-07-29T02:14:03;9.32;;;4.97;;
43626;SDS011;29217;52.586;13.442;2023-07-29T02:16:29;8.23;;;4.95;;
43626;SDS011;29217;52.586;13.442;2023-07-29T02:18:55;7.72;;;4.57;;
43626;SDS011;29217;52.586;13.442;2023-07-29T02:21:20;6.63;;;4.60;;
43626;SDS011;29217;52.586;13.442;2023-07-29T02:23:46;8.60;;;4.85;;
43626;SDS011;29217;52.586;13.442;2023-07-29T02:26:12;8.55;;;4.85;;
43626;SDS011;29217;52.586;13.442;2023-07-29T02:28:37;10.80;;;4.47;;
43626;SDS011;29217;52.586;13.442;2023-07-29T02:31:16;9.40;;;4.57;;
43626;SDS011;29217;52.586;13.442;2023-07-29T02:33:46;8.30;;;4.53;;
43626;SDS011;29217;52.586;13.442;2023-07-29T02:36:12;12.23;;;4.68;;
43626;SDS011;29217;52.586;13.442;2023-07-29T02:38:39;9.15;;;4.22;;
43626;SDS011;29217;52.586;13.442;2023-07-29T02:41:04;5.75;;;4.28;;
43626;SDS011;29217;52.586;13.442;2023-07-29T02:43:30;9.35;;;4.30;;
43626;SDS011;29217;52.586;13.442;2023-07-29T02:45:56;11.32;;;5.15;;
43626;SDS011;29217;52.586;13.442;2023-07-29T02:48:21;11.90;;;5.57;;
43626;SDS011;29217;52.586;13.442;2023-07-29T02:50:47;9.77;;;5.03;;
43626;SDS011;29217;52.586;13.442;2023-07-29T02:53:12;9.43;;;4.97;;
43626;SDS011;29217;52.586;13.442;2023-07-29T02:55:41;8.50;;;5.28;;
43626;SDS011;29217;52.586;13.442;2023-07-29T02:58:07;7.90;;;5.38;;
43626;SDS011;29217;52.586;13.442;2023-07-29T03:00:32;8.30;;;5.22;;
43626;SDS011;29217;52.586;13.442;2023-07-29T03:02:59;12.85;;;5.47;;
43626;SDS011;29217;52.586;13.442;2023-07-29T03:05:27;15.15;;;5.72;;
43626;SDS011;29217;52.586;13.442;2023-07-29T03:07:53;19.95;;;6.95;;
43626;SDS011;29217;52.586;13.442;2023-07-29T03:10:18;11.55;;;5.13;;
43626;SDS011;29217;52.586;13.442;2023-07-29T03:12:45;9.75;;;5.35;;
43626;SDS011;29217;52.586;13.442;2023-07-29T03:15:11;14.10;;;5.97;;
43626;SDS011;29217;52.586;13.442;2023-07-29T03:17:37;8.85;;;5.18;;
43626;SDS011;29217;52.586;13.442;2023-07-29T03:20:03;18.45;;;6.15;;
43626;SDS011;29217;52.586;13.442;2023-07-29T03:22:29;13.00;;;4.93;;
43626;SDS011;29217;52.586;13.442;2023-07-29T03:24:54;7.65;;;5.32;;
43626;SDS011;29217;52.586;13.442;2023-07-29T03:27:20;13.50;;;5.28;;
43626;SDS011;29217;52.586;13.442;2023-07-29T03:29:45;11.50;;;5.70;;
43626;SDS011;29217;52.586;13.442;2023-07-29T03:32:11;12.50;;;5.80;;
43626;SDS011;29217;52.586;13.442;2023-07-29T03:34:37;10.98;;;5.07;;
43626;SDS011;29217;52.586;13.442;2023-07-29T03:37:03;7.63;;;5.28;;
43626;SDS011;29217;52.586;13.442;2023-07-29T03:39:29;11.15;;;5.07;;
43626;SDS011;29217;52.586;13.442;2023-07-29T03:41:54;11.98;;;5.80;;
43626;SDS011;29217;52.586;13.442;2023-07-29T03:44:20;9.82;;;5.53;;
43626;SDS011;29217;52.586;13.442;2023-07-29T03:46:45;9.60;;;5.00;;
43626;SDS011;29217;52.586;13.442;2023-07-29T03:49:11;22.67;;;5.43;;
43626;SDS011;29217;52.586;13.442;2023-07-29T03:51:37;9.18;;;5.70;;
43626;SDS011;29217;52.586;13.442;2023-07-29T03:54:02;15.30;;;5.10;;
43626;SDS011;29217;52.586;13.442;2023-07-29T03:56:28;6.97;;;4.93;;
43626;SDS011;29217;52.586;13.442;2023-07-29T03:58:53;10.25;;;5.40;;
43626;SDS011;29217;52.586;13.442;2023-07-29T04:01:28;10.82;;;5.15;;
43626;SDS011;29217;52.586;13.442;2023-07-29T04:03:53;8.38;;;5.38;;
43626;SDS011;29217;52.586;13.442;2023-07-29T04:06:19;9.70;;;5.75;;
43626;SDS011;29217;52.586;13.442;2023-07-29T04:08:45;8.30;;;5.53;;
43626;SDS011;29217;52.586;13.442;2023-07-29T04:11:11;12.25;;;6.32;;
43626;SDS011;29217;52.586;13.442;2023-07-29T04:13:36;13.63;;;5.85;;
43626;SDS011;29217;52.586;13.442;2023-07-29T04:16:03;10.43;;;6.47;;
43626;SDS011;29217;52.586;13.442;2023-07-29T04:18:29;13.70;;;7.65;;
43626;SDS011;29217;52.586;13.442;2023-07-29T04:20:54;9.48;;;5.70;;
43626;SDS011;29217;52.586;13.442;2023-07-29T04:23:20;11.00;;;6.28;;
43626;SDS011;29217;52.586;13.442;2023-07-29T04:25:46;11.05;;;6.35;;
43626;SDS011;29217;52.586;13.442;2023-07-29T04:28:11;15.85;;;6.38;;
43626;SDS011;29217;52.586;13.442;2023-07-29T04:30:37;9.85;;;6.13;;
43626;SDS011;29217;52.586;13.442;2023-07-29T04:33:02;9.63;;;6.53;;
43626;SDS011;29217;52.586;13.442;2023-07-29T04:35:28;13.85;;;7.95;;
43626;SDS011;29217;52.586;13.442;2023-07-29T04:37:54;13.20;;;7.70;;
43626;SDS011;29217;52.586;13.442;2023-07-29T04:40:19;15.63;;;8.80;;
43626;SDS011;29217;52.586;13.442;2023-07-29T04:42:45;10.70;;;7.60;;
43626;SDS011;29217;52.586;13.442;2023-07-29T04:45:11;11.70;;;8.15;;
43626;SDS011;29217;52.586;13.442;2023-07-29T04:47:36;13.73;;;8.70;;
43626;SDS011;29217;52.586;13.442;2023-07-29T04:50:02;13.70;;;9.02;;
43626;SDS011;29217;52.586;13.442;2023-07-29T04:52:28;15.45;;;9.35;;
43626;SDS011;29217;52.586;13.442;2023-07-29T04:54:53;13.27;;;8.65;;
43626;SDS011;29217;52.586;13.442;2023-07-29T04:57:19;12.48;;;8.20;;
43626;SDS011;29217;52.586;13.442;2023-07-29T04:59:45;18.88;;;9.20;;
43626;SDS011;29217;52.586;13.442;2023-07-29T05:02:10;12.57;;;8.18;;
43626;SDS011;29217;52.586;13.442;2023-07-29T05:04:36;17.60;;;9.02;;
43626;SDS011;29217;52.586;13.442;2023-07-29T05:07:01;12.80;;;9.40;;
43626;SDS011;29217;52.586;13.442;2023-07-29T05:09:27;12.32;;;8.23;;
43626;SDS011;29217;52.586;13.442;2023-07-29T05:11:53;13.65;;;9.60;;
43626;SDS011;29217;52.586;13.442;2023-07-29T05:14:18;14.27;;;8.98;;
43626;SDS011;29217;52.586;13.442;2023-07-29T05:16:44;14.52;;;9.20;;
43626;SDS011;29217;52.586;13.442;2023-07-29T05:19:10;16.00;;;9.13;;
43626;SDS011;29217;52.586;13.442;2023-07-29T05:21:36;12.43;;;8.30;;
43626;SDS011;29217;52.586;13.442;2023-07-29T05:24:03;15.90;;;8.73;;
43626;SDS011;29217;52.586;13.442;2023-07-29T05:26:28;15.40;;;8.75;;
43626;SDS011;29217;52.586;13.442;2023-07-29T05:28:54;11.35;;;8.10;;
43626;SDS011;29217;52.586;13.442;2023-07-29T05:31:20;10.45;;;8.13;;
43626;SDS011;29217;52.586;13.442;2023-07-29T05:33:45;11.82;;;8.43;;
43626;SDS011;29217;52.586;13.442;2023-07-29T05:36:11;14.05;;;8.35;;
43626;SDS011;29217;52.586;13.442;2023-07-29T05:38:36;12.65;;;7.63;;
43626;SDS011;29217;52.586;13.442;2023-07-29T05:41:02;11.98;;;7.80;;
43626;SDS011;29217;52.586;13.442;2023-07-29T05:43:28;11.57;;;8.20;;
43626;SDS011;29217;52.586;13.442;2023-07-29T05:45:53;12.30;;;7.75;;
43626;SDS011;29217;52.586;13.442;2023-07-29T05:48:19;13.88;;;8.02;;
43626;SDS011;29217;52.586;13.442;2023-07-29T05:50:45;10.40;;;6.68;;
43626;SDS011;29217;52.586;13.442;2023-07-29T05:53:10;11.88;;;7.40;;
43626;SDS011;29217;52.586;13.442;2023-07-29T05:55:36;10.30;;;7.10;;
43626;SDS011;29217;52.586;13.442;2023-07-29T05:58:02;10.75;;;7.45;;
43626;SDS011;29217;52.586;13.442;2023-07-29T06:00:27;10.65;;;6.47;;
43626;SDS011;29217;52.586;13.442;2023-07-29T06:02:53;10.85;;;7.20;;
43626;SDS011;29217;52.586;13.442;2023-07-29T06:05:18;12.68;;;7.22;;
43626;SDS011;29217;52.586;13.442;2023-07-29T06:07:44;11.48;;;7.20;;
43626;SDS011;29217;52.586;13.442;2023-07-29T06:10:10;10.27;;;6.38;;
43626;SDS011;29217;52.586;13.442;2023-07-29T06:12:43;10.23;;;6.50;;
43626;SDS011;29217;52.586;13.442;2023-07-29T06:15:10;9.73;;;6.53;;
43626;SDS011;29217;52.586;13.442;2023-07-29T06:17:35;10.90;;;6.50;;
43626;SDS011;29217;52.586;13.442;2023-07-29T06:20:01;9.70;;;6.63;;
43626;SDS011;29217;52.586;13.442;2023-07-29T06:22:28;10.30;;;6.22;;
43626;SDS011;29217;52.586;13.442;2023-07-29T06:24:53;8.70;;;6.22;;
43626;SDS011;29217;52.586;13.442;2023-07-29T06:27:19;7.93;;;6.03;;
43626;SDS011;29217;52.586;13.442;2023-07-29T06:29:44;10.32;;;6.35;;
43626;SDS011;29217;52.586;13.442;2023-07-29T06:32:10;11.23;;;5.75;;
43626;SDS011;29217;52.586;13.442;2023-07-29T06:34:36;8.07;;;5.55;;
43626;SDS011;29217;52.586;13.442;2023-07-29T06:37:01;6.97;;;5.15;;
43626;SDS011;29217;52.586;13.442;2023-07-29T06:39:27;9.65;;;6.03;;
43626;SDS011;29217;52.586;13.442;2023-07-29T06:41:53;7.25;;;5.35;;
43626;SDS011;29217;52.586;13.442;2023-07-29T06:44:18;8.70;;;5.60;;
43626;SDS011;29217;52.586;13.442;2023-07-29T06:46:44;7.18;;;5.05;;
43626;SDS011;29217;52.586;13.442;2023-07-29T06:49:09;10.38;;;5.15;;
43626;SDS011;29217;52.586;13.442;2023-07-29T06:51:35;6.65;;;5.25;;
43626;SDS011;29217;52.586;13.442;2023-07-29T06:54:01;7.18;;;5.10;;
43626;SDS011;29217;52.586;13.442;2023-07-29T06:56:27;6.22;;;4.80;;
43626;SDS011;29217;52.586;13.442;2023-07-29T06:58:52;7.30;;;4.72;;
43626;SDS011;29217;52.586;13.442;2023-07-29T07:01:18;7.72;;;4.88;;
43626;SDS011;29217;52.586;13.442;2023-07-29T07:03:44;10.68;;;5.00;;
43626;SDS011;29217;52.586;13.442;2023-07-29T07:06:09;8.05;;;5.35;;
43626;SDS011;29217;52.586;13.442;2023-07-29T07:08:35;7.90;;;4.82;;
43626;SDS011;29217;52.586;13.442;2023-07-29T07:11:00;6.60;;;5.07;;
43626;SDS011;29217;52.586;13.442;2023-07-29T07:13:26;7.00;;;4.50;;
43626;SDS011;29217;52.586;13.442;2023-07-29T07:15:56;5.30;;;4.20;;
43626;SDS011;29217;52.586;13.442;2023-07-29T07:18:22;7.35;;;4.60;;
43626;SDS011;29217;52.586;13.442;2023-07-29T07:20:50;7.68;;;4.55;;
43626;SDS011;29217;52.586;13.442;2023-07-29T07:23:17;6.28;;;4.85;;
43626;SDS011;29217;52.586;13.442;2023-07-29T07:25:43;7.85;;;4.75;;
43626;SDS011;29217;52.586;13.442;2023-07-29T07:28:09;5.45;;;4.10;;
43626;SDS011;29217;52.586;13.442;2023-07-29T07:30:35;8.57;;;4.68;;
43626;SDS011;29217;52.586;13.442;2023-07-29T07:33:04;7.40;;;4.65;;
43626;SDS011;29217;52.586;13.442;2023-07-29T07:35:29;8.98;;;6.10;;
43626;SDS011;29217;52.586;13.442;2023-07-29T07:37:55;9.25;;;7.00;;
43626;SDS011;29217;52.586;13.442;2023-07-29T07:40:20;10.88;;;7.40;;
43626;SDS011;29217;52.586;13.442;2023-07-29T07:42:46;9.73;;;6.80;;
43626;SDS011;29217;52.586;13.442;2023-07-29T07:45:12;11.70;;;8.52;;
43626;SDS011;29217;52.586;13.442;2023-07-29T07:47:37;14.07;;;8.05;;
43626;SDS011;29217;52.586;13.442;2023-07-29T07:50:03;11.73;;;7.97;;
43626;SDS011;29217;52.586;13.442;2023-07-29T07:52:29;11.55;;;7.60;;
43626;SDS011;29217;52.586;13.442;2023-07-29T07:54:55;12.57;;;8.35;;
43626;SDS011;29217;52.586;13.442;2023-07-29T07:57:21;8.98;;;7.28;;
43626;SDS011;29217;52.586;13.442;2023-07-29T07:59:47;13.52;;;7.28;;
43626;SDS011;29217;52.586;13.442;2023-07-29T08:02:12;8.10;;;6.97;;
43626;SDS011;29217;52.586;13.442;2023-07-29T08:04:38;8.57;;;7.22;;
43626;SDS011;29217;52.586;13.442;2023-07-29T08:07:03;9.75;;;6.65;;
43626;SDS011;29217;52.586;13.442;2023-07-29T08:09:29;8.88;;;6.03;;
43626;SDS011;29217;52.586;13.442;2023-07-29T08:11:55;8.80;;;6.65;;
43626;SDS011;29217;52.586;13.442;2023-07-29T08:14:20;11.05;;;6.15;;
43626;SDS011;29217;52.586;13.442;2023-07-29T08:16:46;13.88;;;6.45;;
43626;SDS011;29217;52.586;13.442;2023-07-29T08:19:11;10.88;;;6.20;;
43626;SDS011;29217;52.586;13.442;2023-07-29T08:21:37;7.28;;;5.93;;
43626;SDS011;29217;52.586;13.442;2023-07-29T08:24:03;10.48;;;7.05;;
43626;SDS011;29217;52.586;13.442;2023-07-29T08:26:29;9.80;;;6.70;;
43626;SDS011;29217;52.586;13.442;2023-07-29T08:28:54;9.63;;;7.00;;
43626;SDS011;29217;52.586;13.442;2023-07-29T08:31:20;7.43;;;5.68;;
43626;SDS011;29217;52.586;13.442;2023-07-29T08:33:45;8.98;;;5.85;;
43626;SDS011;29217;52.586;13.442;2023-07-29T08:36:11;8.23;;;5.63;;
43626;SDS011;29217;52.586;13.442;2023-07-29T08:38:37;6.22;;;5.40;;
43626;SDS011;29217;52.586;13.442;2023-07-29T08:46:27;10.30;;;5.35;;
43626;SDS011;29217;52.586;13.442;2023-07-29T08:48:54;8.07;;;4.80;;
43626;SDS011;29217;52.586;13.442;2023-07-29T08:51:20;5.10;;;4.40;;
43626;SDS011;29217;52.586;13.442;2023-07-29T08:53:48;6.13;;;4.72;;
43626;SDS011;29217;52.586;13.442;2023-07-29T08:56:15;6.88;;;4.60;;
43626;SDS011;29217;52.586;13.442;2023-07-29T08:58:41;5.65;;;4.20;;
43626;SDS011;29217;52.586;13.442;2023-07-29T09:01:07;6.60;;;4.22;;
43626;SDS011;29217;52.586;13.442;2023-07-29T09:03:33;11.40;;;4.22;;
43626;SDS011;29217;52.586;13.442;2023-07-29T09:05:59;5.65;;;4.13;;
43626;SDS011;29217;52.586;13.442;2023-07-29T09:08:27;4.45;;;3.78;;
43626;SDS011;29217;52.586;13.442;2023-07-29T09:10:53;5.88;;;3.90;;
43626;SDS011;29217;52.586;13.442;2023-07-29T09:13:20;10.82;;;4.35;;
43626;SDS011;29217;52.586;13.442;2023-07-29T09:15:46;4.55;;;3.45;;
43626;SDS011;29217;52.586;13.442;2023-07-29T09:18:14;6.13;;;4.18;;
43626;SDS011;29217;52.586;13.442;2023-07-29T09:20:41;5.18;;;3.60;;
43626;SDS011;29217;52.586;13.442;2023-07-29T09:23:07;4.35;;;3.60;;
43626;SDS011;29217;52.586;13.442;2023-07-29T09:25:35;4.40;;;3.70;;
43626;SDS011;29217;52.586;13.442;2023-07-29T09:28:07;4.03;;;3.42;;
43626;SDS011;29217;52.586;13.442;2023-07-29T09:30:34;6.18;;;3.47;;
43626;SDS011;29217;52.586;13.442;2023-07-29T09:33:00;6.93;;;3.15;;
43626;SDS011;29217;52.586;13.442;2023-07-29T09:35:27;3.17;;;2.88;;
43626;SDS011;29217;52.586;13.442;2023-07-29T09:37:57;3.95;;;3.00;;
43626;SDS011;29217;52.586;13.442;2023-07-29T09:40:22;3.75;;;2.90;;
43626;SDS011;29217;52.586;13.442;2023-07-29T09:42:49;5.43;;;2.95;;
43626;SDS011;29217;52.586;13.442;2023-07-29T09:45:19;4.53;;;3.00;;
43626;SDS011;29217;52.586;13.442;2023-07-29T09:47:49;5.45;;;2.70;;
43626;SDS011;29217;52.586;13.442;2023-07-29T09:50:15;6.28;;;2.60;;
43626;SDS011;29217;52.586;13.442;2023-07-29T09:52:42;3.63;;;2.83;;
43626;SDS011;29217;52.586;13.442;2023-07-29T09:55:09;3.13;;;2.78;;
43626;SDS011;29217;52.586;13.442;2023-07-29T09:57:39;3.17;;;2.67;;
43626;SDS011;29217;52.586;13.442;2023-07-29T10:00:05;3.80;;;2.38;;
43626;SDS011;29217;52.586;13.442;2023-07-29T10:02:36;5.05;;;2.83;;
43626;SDS011;29217;52.586;13.442;2023-07-29T10:05:06;8.40;;;2.53;;
43626;SDS011;29217;52.586;13.442;2023-07-29T10:07:33;3.03;;;2.47;;
43626;SDS011;29217;52.586;13.442;2023-07-29T10:10:03;6.85;;;2.72;;
43626;SDS011;29217;52.586;13.442;2023-07-29T10:12:33;4.28;;;2.58;;
43626;SDS011;29217;52.586;13.442;2023-07-29T10:15:00;3.55;;;2.20;;
43626;SDS011;29217;52.586;13.442;2023-07-29T10:17:28;4.55;;;2.30;;
43626;SDS011;29217;52.586;13.442;2023-07-29T10:19:55;4.65;;;2.75;;
43626;SDS011;29217;52.586;13.442;2023-07-29T10:22:25;4.80;;;2.45;;
43626;SDS011;29217;52.586;13.442;2023-07-29T10:24:54;3.45;;;2.40;;
43626;SDS011;29217;52.586;13.442;2023-07-29T10:27:24;4.85;;;2.95;;
43626;SDS011;29217;52.586;13.442;2023-07-29T10:29:51;4.97;;;2.70;;
43626;SDS011;29217;52.586;13.442;2023-07-29T10:32:20;4.07;;;2.47;;
43626;SDS011;29217;52.586;13.442;2023-07-29T10:34:50;2.92;;;2.63;;
43626;SDS011;29217;52.586;13.442;2023-07-29T10:37:16;3.33;;;2.15;;
43626;SDS011;29217;52.586;13.442;2023-07-29T10:39:51;4.65;;;2.30;;
43626;SDS011;29217;52.586;13.442;2023-07-29T10:42:19;2.92;;;2.38;;
43626;SDS011;29217;52.586;13.442;2023-07-29T10:44:48;7.32;;;2.75;;
43626;SDS011;29217;52.586;13.442;2023-07-29T10:47:16;2.60;;;2.40;;
43626;SDS011;29217;52.586;13.442;2023-07-29T10:49:53;2.83;;;2.13;;
43626;SDS011;29217;52.586;13.442;2023-07-29T10:53:02;5.53;;;2.60;;
43626;SDS011;29217;52.586;13.442;2023-07-29T10:55:29;2.40;;;2.10;;
43626;SDS011;29217;52.586;13.442;2023-07-29T10:58:12;2.88;;;2.20;;
43626;SDS011;29217;52.586;13.442;2023-07-29T11:00:44;3.35;;;2.38;;
43626;SDS011;29217;52.586;13.442;2023-07-29T11:03:11;2.45;;;2.03;;
43626;SDS011;29217;52.586;13.442;2023-07-29T11:08:16;4.25;;;1.80;;
43626;SDS011;29217;52.586;13.442;2023-07-29T11:11:05;3.17;;;2.10;;
43626;SDS011;29217;52.586;13.442;2023-07-29T11:13:32;2.50;;;1.90;;
43626;SDS011;29217;52.586;13.442;2023-07-29T11:16:00;3.35;;;1.90;;
43626;SDS011;29217;52.586;13.442;2023-07-29T11:18:30;2.80;;;2.00;;
43626;SDS011;29217;52.586;13.442;2023-07-29T11:21:00;4.07;;;1.80;;
43626;SDS011;29217;52.586;13.442;2023-07-29T11:23:36;19.38;;;3.85;;
43626;SDS011;29217;52.586;13.442;2023-07-29T11:26:03;5.03;;;2.10;;
43626;SDS011;29217;52.586;13.442;2023-07-29T11:28:29;7.18;;;2.10;;
43626;SDS011;29217;52.586;13.442;2023-07-29T11:30:56;16.73;;;3.13;;
43626;SDS011;29217;52.586;13.442;2023-07-29T11:33:25;6.60;;;1.83;;
43626;SDS011;29217;52.586;13.442;2023-07-29T11:35:53;5.97;;;1.83;;
43626;SDS011;29217;52.586;13.442;2023-07-29T11:38:19;3.53;;;2.03;;
43626;SDS011;29217;52.586;13.442;2023-07-29T11:40:59;4.30;;;1.85;;
43626;SDS011;29217;52.586;13.442;2023-07-29T11:43:28;3.45;;;1.70;;
43626;SDS011;29217;52.586;13.442;2023-07-29T11:45:53;6.13;;;1.88;;
43626;SDS011;29217;52.586;13.442;2023-07-29T11:48:32;5.25;;;1.88;;
43626;SDS011;29217;52.586;13.442;2023-07-29T11:50:58;4.43;;;1.90;;
43626;SDS011;29217;52.586;13.442;2023-07-29T11:53:30;3.20;;;1.70;;
43626;SDS011;29217;52.586;13.442;2023-07-29T11:55:56;2.17;;;1.35;;
43626;SDS011;29217;52.586;13.442;2023-07-29T11:58:22;5.60;;;1.40;;
43626;SDS011;29217;52.586;13.442;2023-07-29T12:00:48;2.78;;;1.83;;
43626;SDS011;29217;52.586;13.442;2023-07-29T12:03:14;4.40;;;1.80;;
43626;SDS011;29217;52.586;13.442;2023-07-29T12:05:41;2.85;;;1.70;;
43626;SDS011;29217;52.586;13.442;2023-07-29T12:08:07;1.33;;;1.10;;
43626;SDS011;29217;52.586;13.442;2023-07-29T12:10:34;2.72;;;1.50;;
43626;SDS011;29217;52.586;13.442;2023-07-29T12:13:00;3.13;;;1.60;;
43626;SDS011;29217;52.586;13.442;2023-07-29T12:15:28;3.38;;;1.33;;
43626;SDS011;29217;52.586;13.442;2023-07-29T12:17:58;3.83;;;1.77;;
43626;SDS011;29217;52.586;13.442;2023-07-29T12:20:24;2.05;;;1.33;;
43626;SDS011;29217;52.586;13.442;2023-07-29T12:25:20;2.80;;;1.40;;
43626;SDS011;29217;52.586;13.442;2023-07-29T12:27:46;2.60;;;1.45;;
43626;SDS011;29217;52.586;13.442;2023-07-29T12:30:12;1.50;;;1.30;;
43626;SDS011;29217;52.586;13.442;2023-07-29T12:32:46;3.05;;;1.35;;
43626;SDS011;29217;52.586;13.442;2023-07-29T12:35:12;1.58;;;1.17;;
43626;SDS011;29217;52.586;13.442;2023-07-29T12:37:38;3.42;;;1.55;;
43626;SDS011;29217;52.586;13.442;2023-07-29T12:40:07;3.42;;;1.88;;
43626;SDS011;29217;52.586;13.442;2023-07-29T12:42:45;2.10;;;1.67;;
43626;SDS011;29217;52.586;13.442;2023-07-29T12:45:10;3.90;;;1.80;;
43626;SDS011;29217;52.586;13.442;2023-07-29T12:47:36;4.13;;;1.58;;
43626;SDS011;29217;52.586;13.442;2023-07-29T12:50:01;2.88;;;1.58;;
43626;SDS011;29217;52.586;13.442;2023-07-29T12:52:27;5.18;;;1.50;;
43626;SDS011;29217;52.586;13.442;2023-07-29T12:54:53;2.38;;;1.30;;
43626;SDS011;29217;52.586;13.442;2023-07-29T12:57:18;6.07;;;1.70;;
43626;SDS011;29217;52.586;13.442;2023-07-29T12:59:44;2.08;;;1.50;;
43626;SDS011;29217;52.586;13.442;2023-07-29T13:02:09;2.90;;;1.80;;
43626;SDS011;29217;52.586;13.442;2023-07-29T13:04:35;2.20;;;1.80;;
43626;SDS011;29217;52.586;13.442;2023-07-29T13:07:00;3.72;;;1.88;;
43626;SDS011;29217;52.586;13.442;2023-07-29T13:09:26;3.70;;;2.05;;
43626;SDS011;29217;52.586;13.442;2023-07-29T13:11:51;2.90;;;2.00;;
43626;SDS011;29217;52.586;13.442;2023-07-29T13:14:17;2.97;;;1.90;;
43626;SDS011;29217;52.586;13.442;2023-07-29T13:16:43;4.15;;;2.08;;
43626;SDS011;29217;52.586;13.442;2023-07-29T13:19:08;3.78;;;2.17;;
43626;SDS011;29217;52.586;13.442;2023-07-29T13:21:34;3.65;;;2.38;;
43626;SDS011;29217;52.586;13.442;2023-07-29T13:23:59;3.30;;;2.50;;
43626;SDS011;29217;52.586;13.442;2023-07-29T13:26:25;4.75;;;2.38;;
43626;SDS011;29217;52.586;13.442;2023-07-29T13:28:50;5.47;;;2.33;;
43626;SDS011;29217;52.586;13.442;2023-07-29T13:31:16;4.70;;;2.97;;
43626;SDS011;29217;52.586;13.442;2023-07-29T13:33:42;4.18;;;2.85;;
43626;SDS011;29217;52.586;13.442;2023-07-29T13:36:07;4.00;;;2.47;;
43626;SDS011;29217;52.586;13.442;2023-07-29T13:38:36;4.50;;;2.53;;
43626;SDS011;29217;52.586;13.442;2023-07-29T13:41:01;2.90;;;2.60;;
43626;SDS011;29217;52.586;13.442;2023-07-29T13:43:27;3.63;;;2.83;;
43626;SDS011;29217;52.586;13.442;2023-07-29T13:45:53;2.88;;;2.40;;
43626;SDS011;29217;52.586;13.442;2023-07-29T13:48:18;4.03;;;3.10;;
43626;SDS011;29217;52.586;13.442;2023-07-29T13:50:44;3.28;;;2.28;;
43626;SDS011;29217;52.586;13.442;2023-07-29T13:53:10;4.50;;;2.08;;
43626;SDS011;29217;52.586;13.442;2023-07-29T13:55:36;2.40;;;2.10;;
43626;SDS011;29217;52.586;13.442;2023-07-29T13:58:01;3.67;;;2.00;;
43626;SDS011;29217;52.586;13.442;2023-07-29T14:00:27;2.85;;;1.58;;
43626;SDS011;29217;52.586;13.442;2023-07-29T14:02:53;1.70;;;1.60;;
43626;SDS011;29217;52.586;13.442;2023-07-29T14:05:19;2.03;;;1.30;;
43626;SDS011;29217;52.586;13.442;2023-07-29T14:07:44;2.10;;;1.45;;
43626;SDS011;29217;52.586;13.442;2023-07-29T14:10:10;4.22;;;1.55;;
43626;SDS011;29217;52.586;13.442;2023-07-29T14:12:35;2.05;;;1.08;;
43626;SDS011;29217;52.586;13.442;2023-07-29T14:15:01;2.35;;;1.33;;
43626;SDS011;29217;52.586;13.442;2023-07-29T14:17:28;3.72;;;1.20;;
43626;SDS011;29217;52.586;13.442;2023-07-29T14:19:53;1.92;;;1.20;;
43626;SDS011;29217;52.586;13.442;2023-07-29T14:22:19;1.85;;;0.88;;
43626;SDS011;29217;52.586;13.442;2023-07-29T14:24:44;1.30;;;1.20;;
43626;SDS011;29217;52.586;13.442;2023-07-29T14:27:10;3.17;;;1.10;;
43626;SDS011;29217;52.586;13.442;2023-07-29T14:29:35;2.72;;;0.90;;
43626;SDS011;29217;52.586;13.442;2023-07-29T14:32:01;1.30;;;1.10;;
43626;SDS011;29217;52.586;13.442;2023-07-29T14:34:27;0.80;;;0.73;;
43626;SDS011;29217;52.586;13.442;2023-07-29T14:36:54;0.90;;;0.90;;
43626;SDS011;29217;52.586;13.442;2023-07-29T14:39:19;3.95;;;1.00;;
43626;SDS011;29217;52.586;13.442;2023-07-29T14:41:45;1.35;;;0.98;;
43626;SDS011;29217;52.586;13.442;2023-07-29T14:44:10;2.97;;;1.00;;
43626;SDS011;29217;52.586;13.442;2023-07-29T14:46:36;2.33;;;0.90;;